createdAt,value
2022-08-04T00:00:51.784Z,50.866795
2022-08-04T00:01:51.882Z,50.866779
2022-08-04T00:02:51.767Z,50.866795
2022-08-04T00:03:51.781Z,50.866783
2022-08-04T00:04:51.760Z,50.866817
2022-08-04T00:05:51.754Z,50.866844
2022-08-04T00:06:51.758Z,50.866825
2022-08-04T00:07:51.726Z,50.866806
2022-08-04T00:08:53.056Z,50.866764
2022-08-04T00:09:51.706Z,50.866806
2022-08-04T00:10:51.714Z,50.866814
2022-08-04T00:11:51.699Z,50.866734
2022-08-04T00:12:51.690Z,50.866776
2022-08-04T00:13:59.798Z,50.866776
2022-08-04T00:14:52.678Z,50.866776
2022-08-04T00:15:51.669Z,50.866810
2022-08-04T00:16:51.662Z,50.866844
2022-08-04T00:17:51.657Z,50.866840
2022-08-04T00:18:51.651Z,50.866814
2022-08-04T00:19:51.630Z,50.866856
2022-08-04T00:20:51.625Z,50.866756
2022-08-04T00:21:51.622Z,50.866833
2022-08-04T00:22:51.623Z,50.866814
2022-08-04T00:24:11.831Z,50.866829
2022-08-04T00:24:52.598Z,50.866829
2022-08-04T00:25:51.579Z,50.866837
2022-08-04T00:26:51.577Z,50.866852
2022-08-04T00:27:51.566Z,50.866856
2022-08-04T00:28:51.556Z,50.866814
2022-08-04T00:29:53.117Z,50.866840
2022-08-04T00:30:51.554Z,50.866791
2022-08-04T00:38:52.803Z,50.866669
2022-08-04T00:39:52.716Z,50.866707
2022-08-04T00:40:52.690Z,50.866711
2022-08-04T00:41:56.643Z,50.866753
2022-08-04T00:42:58.597Z,50.866688
2022-08-04T00:43:53.672Z,50.866764
2022-08-04T00:44:52.660Z,50.866772
2022-08-04T00:46:15.436Z,50.866776
2022-08-04T00:46:53.652Z,50.866650
2022-08-04T00:47:52.656Z,50.866688
2022-08-04T00:48:52.647Z,50.866795
2022-08-04T00:49:52.651Z,50.866795
2022-08-04T00:50:52.632Z,50.866962
2022-08-04T00:52:31.426Z,50.867073
2022-08-04T00:52:53.611Z,50.867214
2022-08-04T00:53:52.609Z,50.867245
2022-08-04T00:54:52.594Z,50.867001
2022-08-04T00:55:52.580Z,50.866928
2022-08-04T00:56:52.577Z,50.866852
2022-08-04T00:57:52.588Z,50.866932
2022-08-04T00:58:52.555Z,50.866966
2022-08-04T00:59:52.546Z,50.866913
2022-08-04T01:00:52.554Z,50.866791
2022-08-04T01:01:52.612Z,50.866776
2022-08-04T01:02:52.544Z,50.866753
2022-08-04T01:03:52.520Z,50.866837
2022-08-04T01:04:52.521Z,50.866829
2022-08-04T01:05:52.501Z,50.866802
2022-08-04T01:06:56.236Z,50.866848
2022-08-04T01:07:52.502Z,50.866909
2022-08-04T01:08:52.475Z,50.866829
2022-08-04T01:09:52.478Z,50.866837
2022-08-04T01:10:52.482Z,50.866844
2022-08-04T01:11:56.148Z,50.866825
2022-08-04T01:12:53.462Z,50.866821
2022-08-04T01:13:52.442Z,50.866829
2022-08-04T01:14:52.427Z,50.866802
2022-08-04T01:15:59.496Z,50.866810
2022-08-04T01:16:53.419Z,50.866760
2022-08-04T01:17:52.423Z,50.866798
2022-08-04T01:18:52.400Z,50.866776
2022-08-04T01:19:52.406Z,50.866760
2022-08-04T01:20:52.387Z,50.866795
2022-08-04T01:21:52.370Z,50.866756
2022-08-04T01:22:52.372Z,50.866802
2022-08-04T01:23:52.363Z,50.866829
2022-08-04T01:24:52.363Z,50.866859
2022-08-04T01:25:52.368Z,50.866810
2022-08-04T01:26:57.374Z,50.866798
2022-08-04T01:27:53.329Z,50.866779
2022-08-04T01:28:52.339Z,50.866863
2022-08-04T01:29:55.579Z,50.866787
2022-08-04T01:30:52.300Z,50.866795
2022-08-04T01:31:52.319Z,50.866848
2022-08-04T01:32:52.303Z,50.866791
2022-08-04T01:33:58.456Z,50.866833
2022-08-04T01:34:53.278Z,50.866795
2022-08-04T01:35:52.260Z,50.866768
2022-08-04T01:36:52.270Z,50.866737
2022-08-04T01:37:52.242Z,50.866825
2022-08-04T01:38:52.279Z,50.866787
2022-08-04T01:39:52.236Z,50.866768
2022-08-04T01:40:52.229Z,50.866730
2022-08-04T01:41:58.306Z,50.866741
2022-08-04T01:42:53.215Z,50.866730
2022-08-04T01:43:52.206Z,50.866779
2022-08-04T01:44:52.209Z,50.866749
2022-08-04T01:45:52.196Z,50.866741
2022-08-04T01:46:52.186Z,50.866764
2022-08-04T01:47:52.168Z,50.866734
2022-08-04T01:48:52.166Z,50.866749
2022-08-04T01:49:52.168Z,50.866737
2022-08-04T01:50:52.979Z,50.866734
2022-08-04T01:51:52.132Z,50.866776
2022-08-04T01:52:52.145Z,50.866768
2022-08-04T01:53:52.129Z,50.866764
2022-08-04T01:54:52.115Z,50.866760
2022-08-04T01:55:55.419Z,50.866768
2022-08-04T01:56:52.100Z,50.866726
2022-08-04T01:57:52.079Z,50.866703
2022-08-04T01:58:52.096Z,50.866714
2022-08-04T01:59:52.082Z,50.866604
2022-08-04T02:00:56.238Z,50.866554
2022-08-04T02:01:53.174Z,50.866539
2022-08-04T02:02:52.122Z,50.866501
2022-08-04T02:04:18.606Z,50.866497
2022-08-04T02:04:53.035Z,50.866631
2022-08-04T02:06:02.375Z,50.866764
2022-08-04T02:06:53.023Z,50.866875
2022-08-04T02:07:52.019Z,50.866970
2022-08-04T02:08:52.001Z,50.866982
2022-08-04T02:09:54.990Z,50.867016
2022-08-04T02:10:51.993Z,50.866928
2022-08-04T02:11:51.991Z,50.866890
2022-08-04T02:12:51.971Z,50.866890
2022-08-04T02:13:51.972Z,50.866951
2022-08-04T02:14:51.968Z,50.866901
2022-08-04T02:15:51.963Z,50.866791
2022-08-04T02:16:52.663Z,50.866768
2022-08-04T02:17:51.943Z,50.866779
2022-08-04T02:18:51.940Z,50.866879
2022-08-04T02:19:51.911Z,50.866882
2022-08-04T02:20:51.925Z,50.866852
2022-08-04T02:21:51.917Z,50.866871
2022-08-04T02:22:51.905Z,50.866825
2022-08-04T02:23:51.886Z,50.866814
2022-08-04T02:24:51.869Z,50.866795
2022-08-04T02:25:51.871Z,50.866840
2022-08-04T02:26:51.872Z,50.866787
2022-08-04T02:27:59.838Z,50.866795
2022-08-04T02:28:52.852Z,50.866798
2022-08-04T02:29:51.837Z,50.866817
2022-08-04T02:30:51.826Z,50.866802
2022-08-04T02:31:51.824Z,50.866806
2022-08-04T02:32:51.857Z,50.866833
2022-08-04T02:33:51.806Z,50.866825
2022-08-04T02:34:51.809Z,50.866848
2022-08-04T02:35:51.800Z,50.866795
2022-08-04T02:36:51.786Z,50.866837
2022-08-04T02:37:51.788Z,50.866798
2022-08-04T02:38:51.835Z,50.866745
2022-08-04T02:39:51.821Z,50.866734
2022-08-04T02:40:51.755Z,50.866795
2022-08-04T02:41:51.760Z,50.866776
2022-08-04T02:42:51.737Z,50.866787
2022-08-04T02:43:52.851Z,50.866810
2022-08-04T02:44:52.729Z,50.866783
2022-08-04T02:45:51.719Z,50.866791
2022-08-04T02:46:51.751Z,50.866859
2022-08-04T02:48:30.621Z,50.866856
2022-08-04T02:48:52.699Z,50.866955
2022-08-04T02:49:51.700Z,50.866879
2022-08-04T02:50:52.183Z,50.866840
2022-08-04T02:51:51.678Z,50.866997
2022-08-04T02:52:51.658Z,50.866970
2022-08-04T02:53:51.667Z,50.866909
2022-08-04T02:54:51.648Z,50.866867
2022-08-04T02:55:52.286Z,50.866848
2022-08-04T02:56:51.660Z,50.866787
2022-08-04T02:57:51.631Z,50.866837
2022-08-04T02:58:51.624Z,50.866955
2022-08-04T02:59:51.609Z,50.866917
2022-08-04T03:00:51.642Z,50.867020
2022-08-04T03:01:57.476Z,50.866940
2022-08-04T03:02:52.596Z,50.866772
2022-08-04T03:03:51.581Z,50.866787
2022-08-04T03:04:51.574Z,50.866924
2022-08-04T03:06:00.510Z,50.866886
2022-08-04T03:06:52.559Z,50.866806
2022-08-04T03:07:51.543Z,50.866852
2022-08-04T03:08:51.545Z,50.866894
2022-08-04T03:09:51.533Z,50.866875
2022-08-04T03:10:51.536Z,50.866814
2022-08-04T03:11:51.522Z,50.866795
2022-08-04T03:12:51.518Z,50.866707
2022-08-04T03:13:52.506Z,50.866741
2022-08-04T03:14:51.502Z,50.866711
2022-08-04T03:15:51.591Z,50.866840
2022-08-04T03:16:51.477Z,50.866833
2022-08-04T03:17:53.016Z,50.866772
2022-08-04T03:18:51.465Z,50.866783
2022-08-04T03:19:51.451Z,50.866840
2022-08-04T03:20:52.111Z,50.866730
2022-08-04T03:21:51.456Z,50.866825
2022-08-04T03:23:12.145Z,50.866890
2022-08-04T03:23:53.431Z,50.866821
2022-08-04T03:24:51.415Z,50.866764
2022-08-04T03:25:57.321Z,50.866798
2022-08-04T03:26:52.415Z,50.866844
2022-08-04T03:27:51.400Z,50.866802
2022-08-04T03:28:51.440Z,50.866829
2022-08-04T03:29:51.404Z,50.866844
2022-08-04T03:30:51.377Z,50.866821
2022-08-04T03:31:51.360Z,50.866806
2022-08-04T03:32:51.369Z,50.866772
2022-08-04T03:33:51.353Z,50.866810
2022-08-04T03:34:51.344Z,50.866795
2022-08-04T03:35:51.344Z,50.866753
2022-08-04T03:36:51.320Z,50.866695
2022-08-04T03:37:51.328Z,50.866684
2022-08-04T03:38:56.929Z,50.866680
2022-08-04T03:39:52.292Z,50.866779
2022-08-04T03:40:52.291Z,50.866825
2022-08-04T03:42:03.637Z,50.866756
2022-08-04T03:42:52.277Z,50.866741
2022-08-04T03:43:59.262Z,50.866779
2022-08-04T03:44:52.264Z,50.866737
2022-08-04T03:45:51.263Z,50.866753
2022-08-04T03:46:51.241Z,50.866772
2022-08-04T03:47:51.265Z,50.866783
2022-08-04T03:48:51.231Z,50.866814
2022-08-04T03:49:51.220Z,50.866795
2022-08-04T03:50:51.214Z,50.866787
2022-08-04T03:51:52.088Z,50.866821
2022-08-04T03:52:51.210Z,50.866764
2022-08-04T03:53:51.192Z,50.866734
2022-08-04T03:54:51.186Z,50.866745
2022-08-04T03:55:51.174Z,50.866772
2022-08-04T03:56:51.162Z,50.866779
2022-08-04T03:57:51.162Z,50.866783
2022-08-04T03:58:51.164Z,50.866783
2022-08-04T03:59:51.148Z,50.866776
2022-08-04T04:00:51.201Z,50.866726
2022-08-04T04:02:02.471Z,50.866695
2022-08-04T04:02:52.156Z,50.866688
2022-08-04T04:03:51.124Z,50.866730
2022-08-04T04:04:51.137Z,50.866753
2022-08-04T04:05:59.766Z,50.866749
2022-08-04T04:06:53.870Z,50.866772
2022-08-04T04:07:59.789Z,50.866745
2022-08-04T04:08:53.066Z,50.866768
2022-08-04T04:09:57.717Z,50.866699
2022-08-04T04:10:52.053Z,50.866695
2022-08-04T04:11:55.305Z,50.866695
2022-08-04T04:12:52.036Z,50.866684
2022-08-04T04:13:51.044Z,50.866711
2022-08-04T04:14:51.030Z,50.866718
2022-08-04T04:15:51.022Z,50.866684
2022-08-04T04:16:51.010Z,50.866714
2022-08-04T04:17:50.994Z,50.866703
2022-08-04T04:18:51.002Z,50.866745
2022-08-04T04:19:50.988Z,50.866730
2022-08-04T04:20:51.979Z,50.866722
2022-08-04T04:21:50.964Z,50.866745
2022-08-04T04:22:50.968Z,50.866730
2022-08-04T04:23:50.953Z,50.866722
2022-08-04T04:24:50.959Z,50.866707
2022-08-04T04:25:50.939Z,50.866753
2022-08-04T04:26:50.941Z,50.866779
2022-08-04T04:27:50.942Z,50.866753
2022-08-04T04:28:50.912Z,50.866737
2022-08-04T04:29:50.919Z,50.866722
2022-08-04T04:30:50.896Z,50.866745
2022-08-04T04:31:50.890Z,50.866779
2022-08-04T04:32:50.890Z,50.866760
2022-08-04T04:33:50.867Z,50.866726
2022-08-04T04:34:50.883Z,50.866753
2022-08-04T04:35:50.851Z,50.866764
2022-08-04T04:36:50.847Z,50.866749
2022-08-04T04:37:50.838Z,50.866665
2022-08-04T04:38:50.912Z,50.866676
2022-08-04T04:39:50.831Z,50.866680
2022-08-04T04:40:50.825Z,50.866741
2022-08-04T04:41:50.817Z,50.866821
2022-08-04T04:42:50.804Z,50.866718
2022-08-04T04:43:52.604Z,50.866749
2022-08-04T04:44:51.195Z,50.866714
2022-08-04T04:45:50.796Z,50.866692
2022-08-04T04:46:50.781Z,50.866722
2022-08-04T04:48:09.474Z,50.866673
2022-08-04T04:48:51.760Z,50.866695
2022-08-04T04:49:50.735Z,50.866703
2022-08-04T04:50:51.750Z,50.866684
2022-08-04T04:51:50.730Z,50.866745
2022-08-04T04:52:50.724Z,50.866726
2022-08-04T04:53:50.728Z,50.866673
2022-08-04T04:54:51.706Z,50.866673
2022-08-04T04:55:50.710Z,50.866730
2022-08-04T04:56:51.677Z,50.866604
2022-08-04T04:57:54.508Z,50.866695
2022-08-04T04:58:50.693Z,50.866749
2022-08-04T04:59:50.659Z,50.866772
2022-08-04T05:00:51.670Z,50.866688
2022-08-04T05:01:50.665Z,50.866703
2022-08-04T05:02:50.649Z,50.866837
2022-08-04T05:03:50.640Z,50.866791
2022-08-04T05:04:50.631Z,50.866768
2022-08-04T05:05:50.625Z,50.866776
2022-08-04T05:06:54.291Z,50.866798
2022-08-04T05:07:50.615Z,50.866848
2022-08-04T05:08:54.207Z,50.866871
2022-08-04T05:09:51.591Z,50.866879
2022-08-04T05:10:50.576Z,50.866928
2022-08-04T05:11:51.593Z,50.866985
2022-08-04T05:14:31.518Z,50.867058
2022-08-04T05:14:35.802Z,50.866943
2022-08-04T05:14:51.550Z,50.866955
2022-08-04T05:15:50.548Z,50.866894
2022-08-04T05:16:50.540Z,50.866875
2022-08-04T05:17:50.523Z,50.866875
2022-08-04T05:18:50.521Z,50.866936
2022-08-04T05:19:50.512Z,50.866882
2022-08-04T05:20:50.628Z,50.867008
2022-08-04T05:21:50.507Z,50.867119
2022-08-04T05:22:50.586Z,50.867138
2022-08-04T05:23:50.488Z,50.867344
2022-08-04T05:24:50.481Z,50.867020
2022-08-04T05:25:59.007Z,50.867065
2022-08-04T05:26:51.461Z,50.866932
2022-08-04T05:27:50.453Z,50.866920
2022-08-04T05:28:50.450Z,50.866806
2022-08-04T05:29:50.456Z,50.866936
2022-08-04T05:30:50.430Z,50.867119
2022-08-04T05:31:50.412Z,50.867191
2022-08-04T05:32:51.409Z,50.867054
2022-08-04T05:33:50.407Z,50.866993
2022-08-04T05:34:50.394Z,50.866982
2022-08-04T05:36:17.134Z,50.866924
2022-08-04T05:36:51.385Z,50.866890
2022-08-04T05:38:01.620Z,50.866932
2022-08-04T05:38:51.448Z,50.866917
2022-08-04T05:39:50.353Z,50.866928
2022-08-04T05:40:50.361Z,50.866974
2022-08-04T05:41:55.681Z,50.866894
2022-08-04T05:42:51.330Z,50.866795
2022-08-04T05:43:50.324Z,50.866798
2022-08-04T05:44:51.303Z,50.866924
2022-08-04T05:45:51.325Z,50.867035
2022-08-04T05:46:53.516Z,50.867023
2022-08-04T05:47:50.296Z,50.866920
2022-08-04T05:48:50.289Z,50.866905
2022-08-04T05:50:01.426Z,50.866810
2022-08-04T05:50:51.277Z,50.866940
2022-08-04T05:51:50.263Z,50.866844
2022-08-04T05:52:50.260Z,50.867210
2022-08-04T05:53:50.245Z,50.867260
2022-08-04T05:54:50.245Z,50.867409
2022-08-04T05:55:58.785Z,50.867287
2022-08-04T05:56:51.231Z,50.867466
2022-08-04T05:57:55.367Z,50.867260
2022-08-04T05:58:52.215Z,50.867008
2022-08-04T05:59:50.195Z,50.867035
2022-08-04T06:00:52.217Z,50.866810
2022-08-04T06:01:56.315Z,50.866882
2022-08-04T06:02:51.181Z,50.866718
2022-08-04T06:03:50.169Z,50.866505
2022-08-04T06:04:50.185Z,50.866371
2022-08-04T06:05:50.160Z,50.866421
2022-08-04T06:06:50.149Z,50.866489
2022-08-04T06:08:12.725Z,50.866558
2022-08-04T06:08:51.135Z,50.866505
2022-08-04T06:09:50.140Z,50.866405
2022-08-04T06:10:50.118Z,50.866505
2022-08-04T06:12:03.300Z,50.866390
2022-08-04T06:12:51.099Z,50.866383
2022-08-04T06:13:51.156Z,50.866550
2022-08-04T06:14:51.094Z,50.866661
2022-08-04T06:15:50.081Z,50.866615
2022-08-04T06:16:51.503Z,50.866581
2022-08-04T06:19:56.790Z,50.866596
2022-08-04T06:20:00.737Z,50.866695
2022-08-04T06:20:04.006Z,50.866581
2022-08-04T06:20:51.038Z,50.866634
2022-08-04T06:21:50.044Z,50.866592
2022-08-04T06:22:50.047Z,50.866543
2022-08-04T06:23:53.257Z,50.866619
2022-08-04T06:24:51.013Z,50.866562
2022-08-04T06:25:49.999Z,50.866413
2022-08-04T06:26:49.999Z,50.866344
2022-08-04T06:27:49.993Z,50.866497
2022-08-04T06:28:49.991Z,50.866379
2022-08-04T06:29:51.725Z,50.866756
2022-08-04T06:30:49.969Z,50.866810
2022-08-04T06:32:27.156Z,50.866776
2022-08-04T06:32:50.953Z,50.866734
2022-08-04T06:33:54.092Z,50.866711
2022-08-04T06:34:49.938Z,50.866734
2022-08-04T06:35:49.931Z,50.866714
2022-08-04T06:36:49.941Z,50.866737
2022-08-04T06:37:49.914Z,50.866776
2022-08-04T06:38:58.255Z,50.866764
2022-08-04T06:39:50.911Z,50.866776
2022-08-04T06:40:49.887Z,50.866875
2022-08-04T06:42:02.555Z,50.866924
2022-08-04T06:42:50.873Z,50.866920
2022-08-04T06:43:49.865Z,50.866890
2022-08-04T06:44:49.870Z,50.866859
2022-08-04T06:45:49.853Z,50.866764
2022-08-04T06:46:49.846Z,50.866791
2022-08-04T06:47:49.843Z,50.866692
2022-08-04T06:48:49.841Z,50.866592
2022-08-04T06:51:32.428Z,50.866661
2022-08-04T06:51:32.678Z,50.866673
2022-08-04T06:51:50.949Z,50.866699
2022-08-04T06:52:49.856Z,50.866692
2022-08-04T06:53:49.799Z,50.866661
2022-08-04T06:54:50.617Z,50.866676
2022-08-04T06:55:49.775Z,50.866707
2022-08-04T06:56:49.767Z,50.866695
2022-08-04T06:57:49.758Z,50.866711
2022-08-04T06:58:49.771Z,50.866707
2022-08-04T06:59:49.754Z,50.866791
2022-08-04T07:00:49.737Z,50.866779
2022-08-04T07:01:49.774Z,50.866756
2022-08-04T07:02:49.722Z,50.866756
2022-08-04T07:03:50.823Z,50.866749
2022-08-04T07:04:50.658Z,50.866863
2022-08-04T07:05:49.691Z,50.866810
2022-08-04T07:06:49.689Z,50.866760
2022-08-04T07:07:57.627Z,50.866730
2022-08-04T07:08:51.660Z,50.866707
2022-08-04T07:09:49.671Z,50.866726
2022-08-04T07:10:49.658Z,50.866726
2022-08-04T07:11:49.664Z,50.866779
2022-08-04T07:12:49.654Z,50.866802
2022-08-04T07:13:49.636Z,50.866764
2022-08-04T07:14:49.649Z,50.866802
2022-08-04T07:15:49.625Z,50.866764
2022-08-04T07:16:49.629Z,50.866703
2022-08-04T07:17:52.388Z,50.866783
2022-08-04T07:18:49.597Z,50.866810
2022-08-04T07:19:49.595Z,50.866772
2022-08-04T07:20:49.593Z,50.866783
2022-08-04T07:22:25.021Z,50.866756
2022-08-04T07:22:50.574Z,50.866749
2022-08-04T07:23:49.564Z,50.866764
2022-08-04T07:24:49.586Z,50.866791
2022-08-04T07:25:58.959Z,50.866776
2022-08-04T07:26:50.542Z,50.866730
2022-08-04T07:27:49.608Z,50.866772
2022-08-04T07:28:49.543Z,50.866970
2022-08-04T07:29:49.531Z,50.867008
2022-08-04T07:30:50.527Z,50.866966
2022-08-04T07:31:49.519Z,50.866985
2022-08-04T07:32:49.501Z,50.866871
2022-08-04T07:34:16.447Z,50.866817
2022-08-04T07:34:50.488Z,50.866871
2022-08-04T07:36:05.046Z,50.866848
2022-08-04T07:36:52.878Z,50.866829
2022-08-04T07:37:49.472Z,50.866837
2022-08-04T07:38:51.658Z,50.866840
2022-08-04T07:39:49.467Z,50.866821
2022-08-04T07:40:49.449Z,50.866833
2022-08-04T07:41:49.486Z,50.866821
2022-08-04T07:42:49.425Z,50.866787
2022-08-04T07:43:49.419Z,50.866825
2022-08-04T07:44:50.255Z,50.866776
2022-08-04T07:45:49.393Z,50.866825
2022-08-04T07:46:51.257Z,50.866806
2022-08-04T07:48:04.997Z,50.866844
2022-08-04T07:48:50.390Z,50.866840
2022-08-04T07:49:55.135Z,50.866791
2022-08-04T07:50:50.373Z,50.866764
2022-08-04T07:51:49.365Z,50.866810
2022-08-04T07:53:03.605Z,50.866859
2022-08-04T07:53:55.529Z,50.866951
2022-08-04T07:54:49.347Z,50.866951
2022-08-04T07:55:50.296Z,50.867001
2022-08-04T07:56:50.181Z,50.867001
2022-08-04T07:57:49.318Z,50.866928
2022-08-04T07:58:49.923Z,50.866932
2022-08-04T07:59:50.330Z,50.866955
2022-08-04T08:00:50.296Z,50.867126
2022-08-04T08:01:49.283Z,50.867180
2022-08-04T08:02:49.277Z,50.867203
2022-08-04T08:03:49.355Z,50.867142
2022-08-04T08:04:49.282Z,50.866879
2022-08-04T08:06:16.953Z,50.866707
2022-08-04T08:06:50.249Z,50.866627
2022-08-04T08:07:50.846Z,50.866478
2022-08-04T08:08:50.236Z,50.866444
2022-08-04T08:09:49.239Z,50.866489
2022-08-04T08:10:49.225Z,50.866787
2022-08-04T08:12:38.655Z,50.866833
2022-08-04T08:12:52.135Z,50.866825
2022-08-04T08:13:49.201Z,50.866821
2022-08-04T08:14:49.200Z,50.866821
2022-08-04T08:15:49.199Z,50.866791
2022-08-04T08:16:49.175Z,50.866821
2022-08-04T08:17:58.587Z,50.866810
2022-08-04T08:18:50.308Z,50.866817
2022-08-04T08:19:50.157Z,50.866749
2022-08-04T08:20:49.146Z,50.866772
2022-08-04T08:21:59.077Z,50.866791
2022-08-04T08:22:51.139Z,50.866821
2022-08-04T08:23:49.125Z,50.866871
2022-08-04T08:24:49.115Z,50.866848
2022-08-04T08:25:49.794Z,50.866840
2022-08-04T08:26:49.104Z,50.866844
2022-08-04T08:27:55.938Z,50.866810
2022-08-04T08:28:50.086Z,50.866837
2022-08-04T08:29:49.079Z,50.866875
2022-08-04T08:30:52.851Z,50.866833
2022-08-04T08:31:58.463Z,50.866829
2022-08-04T08:32:50.050Z,50.866772
2022-08-04T08:33:50.661Z,50.866795
2022-08-04T08:34:49.056Z,50.866871
2022-08-04T08:35:53.026Z,50.866859
2022-08-04T08:36:50.029Z,50.866825
2022-08-04T08:37:49.536Z,50.866829
2022-08-04T08:38:49.022Z,50.866867
2022-08-04T08:39:49.070Z,50.866829
2022-08-04T08:40:49.002Z,50.866837
2022-08-04T08:41:51.957Z,50.866802
2022-08-04T08:42:48.987Z,50.866779
2022-08-04T08:44:06.149Z,50.866768
2022-08-04T08:44:54.820Z,50.866772
2022-08-04T08:45:49.959Z,50.866638
2022-08-04T08:46:50.265Z,50.866817
2022-08-04T08:48:05.131Z,50.866817
2022-08-04T08:48:49.940Z,50.866886
2022-08-04T08:50:02.407Z,50.866936
2022-08-04T08:50:49.921Z,50.866959
2022-08-04T08:51:48.929Z,50.866886
2022-08-04T08:52:57.595Z,50.866848
2022-08-04T08:53:49.898Z,50.866821
2022-08-04T08:54:48.912Z,50.866833
2022-08-04T08:55:48.890Z,50.866859
2022-08-04T08:56:48.886Z,50.866867
2022-08-04T08:58:00.048Z,50.866882
2022-08-04T08:58:49.870Z,50.866871
2022-08-04T08:59:48.873Z,50.866863
2022-08-04T09:00:48.884Z,50.866821
2022-08-04T09:01:48.925Z,50.866776
2022-08-04T09:02:48.842Z,50.866753
2022-08-04T09:03:49.837Z,50.866825
2022-08-04T09:04:48.831Z,50.866718
2022-08-04T09:05:48.837Z,50.866779
2022-08-04T09:06:48.809Z,50.866760
2022-08-04T09:07:48.802Z,50.866760
2022-08-04T09:08:48.796Z,50.866806
2022-08-04T09:09:48.792Z,50.866913
2022-08-04T09:10:48.783Z,50.866985
2022-08-04T09:11:48.781Z,50.867012
2022-08-04T09:12:48.766Z,50.867111
2022-08-04T09:13:48.760Z,50.867107
2022-08-04T09:14:48.756Z,50.867050
2022-08-04T09:15:52.468Z,50.867073
2022-08-04T09:16:50.742Z,50.867203
2022-08-04T09:17:48.726Z,50.867256
2022-08-04T09:18:48.723Z,50.867447
2022-08-04T09:19:48.713Z,50.867634
2022-08-04T09:20:48.721Z,50.867687
2022-08-04T09:21:48.705Z,50.867733
2022-08-04T09:23:03.308Z,50.867817
2022-08-04T09:23:48.688Z,50.867802
2022-08-04T09:24:48.682Z,50.867802
2022-08-04T09:25:48.686Z,50.867641
2022-08-04T09:26:48.675Z,50.867649
2022-08-04T09:27:48.661Z,50.867634
2022-08-04T09:28:53.964Z,50.867489
2022-08-04T09:29:50.682Z,50.867168
2022-08-04T09:30:48.696Z,50.867031
2022-08-04T09:31:54.972Z,50.866779
2022-08-04T09:32:49.630Z,50.866596
2022-08-04T09:33:48.621Z,50.866417
2022-08-04T09:35:03.522Z,50.866360
2022-08-04T09:35:49.603Z,50.866196
2022-08-04T09:36:48.719Z,50.866283
2022-08-04T09:37:48.598Z,50.866283
2022-08-04T09:38:52.361Z,50.866405
2022-08-04T09:39:51.830Z,50.866695
2022-08-04T09:40:55.316Z,50.866695
2022-08-04T09:41:52.643Z,50.866695
2022-08-04T09:42:48.556Z,50.866722
2022-08-04T09:43:59.423Z,50.866711
2022-08-04T09:44:56.219Z,50.866699
2022-08-04T09:45:49.766Z,50.866631
2022-08-04T09:46:48.521Z,50.866676
2022-08-04T09:47:48.523Z,50.866650
2022-08-04T09:48:48.499Z,50.866695
2022-08-04T09:49:49.505Z,50.866661
2022-08-04T09:50:50.589Z,50.866650
2022-08-04T09:51:57.239Z,50.866695
2022-08-04T09:52:49.479Z,50.866695
2022-08-04T09:53:48.494Z,50.866692
2022-08-04T09:54:48.470Z,50.866711
2022-08-04T09:55:53.778Z,50.866707
2022-08-04T09:56:50.241Z,50.866714
2022-08-04T09:57:48.441Z,50.866730
2022-08-04T09:58:48.444Z,50.866631
2022-08-04T09:59:49.437Z,50.866684
2022-08-04T10:00:48.421Z,50.866737
2022-08-04T10:01:48.425Z,50.866642
2022-08-04T10:02:49.479Z,50.866695
2022-08-04T10:03:48.405Z,50.866695
2022-08-04T10:04:48.394Z,50.866711
2022-08-04T10:05:48.398Z,50.866722
2022-08-04T10:06:48.394Z,50.866734
2022-08-04T10:08:15.205Z,50.866676
2022-08-04T10:08:51.207Z,50.866657
2022-08-04T10:09:48.359Z,50.866730
2022-08-04T10:10:48.381Z,50.866676
2022-08-04T10:11:56.108Z,50.866684
2022-08-04T10:12:49.339Z,50.866676
2022-08-04T10:13:48.351Z,50.866653
2022-08-04T10:14:48.333Z,50.866642
2022-08-04T10:15:48.326Z,50.866608
2022-08-04T10:16:48.315Z,50.866680
2022-08-04T10:17:51.933Z,50.866802
2022-08-04T10:18:48.309Z,50.866673
2022-08-04T10:19:48.298Z,50.866665
2022-08-04T10:20:52.913Z,50.866680
2022-08-04T10:21:50.596Z,50.866653
2022-08-04T10:23:10.442Z,50.866631
2022-08-04T10:23:56.482Z,50.866688
2022-08-04T10:24:49.262Z,50.866642
2022-08-04T10:26:07.289Z,50.866718
2022-08-04T10:26:50.592Z,50.866684
2022-08-04T10:27:48.239Z,50.866692
2022-08-04T10:28:48.231Z,50.866703
2022-08-04T10:29:48.223Z,50.866695
2022-08-04T10:30:48.214Z,50.866665
2022-08-04T10:31:48.214Z,50.866638
2022-08-04T10:32:48.203Z,50.866653
2022-08-04T10:33:48.202Z,50.866627
2022-08-04T10:34:48.196Z,50.866627
2022-08-04T10:35:48.180Z,50.866631
2022-08-04T10:36:48.183Z,50.866646
2022-08-04T10:38:00.320Z,50.866623
2022-08-04T10:38:49.162Z,50.866634
2022-08-04T10:39:48.215Z,50.866646
2022-08-04T10:40:48.147Z,50.866581
2022-08-04T10:41:48.156Z,50.866577
2022-08-04T10:42:48.141Z,50.866547
2022-08-04T10:43:48.124Z,50.866604
2022-08-04T10:44:48.122Z,50.866631
2022-08-04T10:45:48.120Z,50.866676
2022-08-04T10:46:49.105Z,50.866642
2022-08-04T10:47:53.225Z,50.866676
2022-08-04T10:48:49.096Z,50.866695
2022-08-04T10:49:48.087Z,50.866653
2022-08-04T10:50:48.087Z,50.866676
2022-08-04T10:51:58.404Z,50.866684
2022-08-04T10:52:49.837Z,50.866711
2022-08-04T10:53:49.057Z,50.866718
2022-08-04T10:54:48.093Z,50.866718
2022-08-04T10:56:05.727Z,50.866737
2022-08-04T10:56:49.048Z,50.866810
2022-08-04T10:57:48.028Z,50.866776
2022-08-04T10:58:49.003Z,50.866726
2022-08-04T10:59:49.020Z,50.866604
2022-08-04T11:00:48.007Z,50.866432
2022-08-04T11:01:50.970Z,50.866440
2022-08-04T11:02:49.044Z,50.866364
2022-08-04T11:03:47.987Z,50.866447
2022-08-04T11:04:47.978Z,50.866558
2022-08-04T11:05:47.974Z,50.866570
2022-08-04T11:06:47.992Z,50.866634
2022-08-04T11:07:47.967Z,50.866577
2022-08-04T11:08:47.955Z,50.866520
2022-08-04T11:09:47.945Z,50.866543
2022-08-04T11:10:47.938Z,50.866600
2022-08-04T11:11:56.876Z,50.866676
2022-08-04T11:12:48.929Z,50.866661
2022-08-04T11:13:48.821Z,50.866684
2022-08-04T11:14:47.911Z,50.866634
2022-08-04T11:15:47.915Z,50.866627
2022-08-04T11:16:47.918Z,50.866623
2022-08-04T11:17:47.887Z,50.866665
2022-08-04T11:18:47.889Z,50.866604
2022-08-04T11:19:53.308Z,50.866676
2022-08-04T11:20:49.873Z,50.866680
2022-08-04T11:21:47.868Z,50.866695
2022-08-04T11:22:47.883Z,50.866699
2022-08-04T11:23:47.847Z,50.866699
2022-08-04T11:24:47.842Z,50.866661
2022-08-04T11:25:51.592Z,50.866676
2022-08-04T11:26:48.826Z,50.866673
2022-08-04T11:27:47.819Z,50.866680
2022-08-04T11:28:55.798Z,50.866673
2022-08-04T11:29:49.812Z,50.866711
2022-08-04T11:30:47.800Z,50.866722
2022-08-04T11:31:51.652Z,50.866695